Time;durP1;ratioP1;P1;durP2;ratioP2;P2;SDS_P1;SDS_P2;PMS_P1;PMS_P2;Temp;Humidity;BMP_temperature;BMP_pressure;BME280_temperature;BME280_humidity;BME280_pressure;Samples;Min_cycle;Max_cycle;Signal;HPM_P1;HPM_P2
2023/08/24 00:00:33;;;;;;;8.07;4.25;;;18.40;90.00;;;;;;5017004;28;20041;-69
2023/08/24 00:02:59;;;;;;;9.25;4.28;;;18.30;90.10;;;;;;5031165;28;20156;-69
2023/08/24 00:05:25;;;;;;;12.15;4.85;;;18.20;90.10;;;;;;5032969;28;20033;-70
2023/08/24 00:07:51;;;;;;;7.22;3.63;;;18.20;90.30;;;;;;5041642;28;20061;-69
2023/08/24 00:10:17;;;;;;;10.38;4.28;;;18.20;90.80;;;;;;5022714;28;20126;-70
2023/08/24 00:12:43;;;;;;;13.57;4.45;;;18.10;90.20;;;;;;5040002;28;20076;-70
2023/08/24 00:15:10;;;;;;;13.60;4.50;;;18.00;90.20;;;;;;5033296;28;20519;-69
2023/08/24 00:17:36;;;;;;;10.50;4.90;;;18.00;90.40;;;;;;5020926;28;20037;-70
2023/08/24 00:20:04;;;;;;;14.23;5.50;;;17.90;90.80;;;;;;5024991;28;20025;-69
2023/08/24 00:22:30;;;;;;;9.55;5.63;;;17.70;90.90;;;;;;5029365;28;20038;-69
2023/08/24 00:24:55;;;;;;;9.43;5.32;;;17.60;91.50;;;;;;5031102;28;20505;-69
2023/08/24 00:27:21;;;;;;;12.35;5.65;;;17.50;91.40;;;;;;5025911;28;20026;-69
2023/08/24 00:29:46;;;;;;;8.18;4.65;;;17.50;92.00;;;;;;5023601;28;20037;-69
2023/08/24 00:32:12;;;;;;;11.35;5.03;;;17.40;92.10;;;;;;5038477;28;20029;-70
2023/08/24 00:34:37;;;;;;;11.77;5.30;;;17.30;92.00;;;;;;5030755;28;20029;-70
2023/08/24 00:37:02;;;;;;;8.77;5.10;;;17.30;92.20;;;;;;5028321;28;20408;-69
2023/08/24 00:39:29;;;;;;;9.45;5.13;;;17.30;92.60;;;;;;5018562;28;20034;-69
2023/08/24 00:41:54;;;;;;;8.68;4.70;;;17.10;92.60;;;;;;5027660;28;20065;-71
2023/08/24 00:44:20;;;;;;;11.73;4.82;;;17.10;92.70;;;;;;5024389;28;20068;-69
2023/08/24 00:46:45;;;;;;;8.50;5.03;;;17.10;92.60;;;;;;5029923;28;20112;-69
2023/08/24 00:49:11;;;;;;;9.73;4.85;;;17.00;92.50;;;;;;5022355;28;20026;-69
2023/08/24 00:51:38;;;;;;;9.77;5.13;;;17.00;92.50;;;;;;5027544;28;20030;-70
2023/08/24 00:54:04;;;;;;;11.60;6.72;;;17.00;92.50;;;;;;5025658;28;20026;-69
2023/08/24 00:56:30;;;;;;;12.98;6.85;;;17.00;92.40;;;;;;5021273;28;20026;-69
2023/08/24 00:58:57;;;;;;;12.85;7.07;;;17.00;92.40;;;;;;5025925;28;20060;-70
2023/08/24 01:01:24;;;;;;;8.63;6.50;;;17.00;92.80;;;;;;5024284;28;20109;-69
2023/08/24 01:03:49;;;;;;;10.45;6.63;;;17.00;93.10;;;;;;5037298;28;20047;-70
2023/08/24 01:06:15;;;;;;;13.60;6.93;;;17.00;93.20;;;;;;5034536;28;20033;-69
2023/08/24 01:08:41;;;;;;;13.50;6.72;;;17.10;93.20;;;;;;5032902;28;20592;-69
2023/08/24 01:11:29;;;;;;;12.38;7.80;;;17.10;92.70;;;;;;5037615;28;20029;-69
2023/08/24 01:14:07;;;;;;;10.73;6.22;;;17.10;92.50;;;;;;5029690;28;20064;-69
2023/08/24 01:16:40;;;;;;;12.07;6.10;;;17.10;93.20;;;;;;5028208;28;20358;-70
2023/08/24 01:19:10;;;;;;;14.32;7.53;;;17.10;92.90;;;;;;5021145;28;20029;-69
2023/08/24 01:21:36;;;;;;;18.30;7.55;;;17.00;93.00;;;;;;5024691;28;20121;-69
2023/08/24 01:24:21;;;;;;;12.73;8.32;;;17.00;92.90;;;;;;5029676;28;20537;-69
2023/08/24 01:26:48;;;;;;;11.65;8.48;;;17.00;93.50;;;;;;5037229;28;20118;-70
2023/08/24 01:29:15;;;;;;;13.10;8.57;;;17.00;93.40;;;;;;5025421;28;20450;-71
2023/08/24 01:31:41;;;;;;;12.43;8.95;;;17.00;94.30;;;;;;5031841;28;20021;-69
2023/08/24 01:34:06;;;;;;;16.05;9.10;;;17.00;94.30;;;;;;5028573;28;20385;-69
2023/08/24 01:36:32;;;;;;;13.90;8.75;;;16.90;93.90;;;;;;5022447;28;20043;-70
2023/08/24 01:39:09;;;;;;;14.63;9.00;;;16.90;93.50;;;;;;5025300;28;20040;-69
2023/08/24 01:41:42;;;;;;;15.10;8.95;;;16.90;93.30;;;;;;5031144;28;20120;-69
2023/08/24 01:44:09;;;;;;;15.32;9.82;;;16.80;93.60;;;;;;5021967;28;20140;-69
2023/08/24 01:46:37;;;;;;;13.88;9.18;;;16.70;93.60;;;;;;5028597;28;20401;-68
2023/08/24 01:49:04;;;;;;;14.93;9.32;;;16.60;93.40;;;;;;5024754;28;21542;-69
2023/08/24 01:51:30;;;;;;;18.65;9.73;;;16.60;93.80;;;;;;5035895;28;20033;-70
2023/08/24 01:53:57;;;;;;;14.77;9.77;;;16.50;93.80;;;;;;5029793;28;20466;-69
2023/08/24 01:56:22;;;;;;;16.02;11.30;;;16.40;94.00;;;;;;5028284;28;20017;-69
2023/08/24 01:58:48;;;;;;;16.33;11.60;;;16.40;94.40;;;;;;5024146;28;20497;-70
2023/08/24 02:01:13;;;;;;;22.65;12.52;;;16.30;94.50;;;;;;5029955;28;20056;-70
2023/08/24 02:03:39;;;;;;;19.98;12.18;;;16.30;94.50;;;;;;5026282;28;20388;-69
2023/08/24 02:06:06;;;;;;;17.30;13.68;;;16.20;94.60;;;;;;5041036;28;20032;-69
2023/08/24 02:08:32;;;;;;;18.63;13.00;;;16.20;94.70;;;;;;5031694;28;20543;-69
2023/08/24 02:10:57;;;;;;;20.65;13.35;;;16.10;94.60;;;;;;5022568;28;20038;-69
2023/08/24 02:13:23;;;;;;;18.98;12.88;;;16.10;94.60;;;;;;5028096;28;20025;-69
2023/08/24 02:15:48;;;;;;;18.52;13.02;;;16.10;94.40;;;;;;5032654;28;20029;-69
2023/08/24 02:18:14;;;;;;;21.95;14.02;;;16.10;94.60;;;;;;5036502;28;20120;-69
2023/08/24 02:20:40;;;;;;;18.67;13.10;;;16.10;94.80;;;;;;5020233;28;20548;-68
2023/08/24 02:23:05;;;;;;;23.58;13.65;;;16.10;95.10;;;;;;5032461;28;20054;-69
2023/08/24 02:25:31;;;;;;;22.90;14.68;;;16.00;95.20;;;;;;5025522;28;20056;-69
2023/08/24 02:27:57;;;;;;;21.80;14.38;;;16.00;95.20;;;;;;5024685;28;20258;-69
2023/08/24 02:30:23;;;;;;;20.95;13.48;;;15.90;95.10;;;;;;5018061;28;20088;-69
2023/08/24 02:32:50;;;;;;;18.90;13.57;;;15.80;94.80;;;;;;5029202;28;20030;-69
2023/08/24 02:35:16;;;;;;;19.33;13.93;;;15.70;94.70;;;;;;5022135;28;20032;-69
2023/08/24 02:37:41;;;;;;;19.38;13.48;;;15.70;94.90;;;;;;5027533;28;20108;-69
2023/08/24 02:40:09;;;;;;;24.60;13.60;;;15.70;95.20;;;;;;5020623;28;20038;-69
2023/08/24 02:42:34;;;;;;;19.95;13.50;;;15.60;95.30;;;;;;5038224;28;20021;-69
2023/08/24 02:45:00;;;;;;;21.38;14.82;;;15.60;95.20;;;;;;5021485;28;20354;-69
2023/08/24 02:47:25;;;;;;;19.85;14.43;;;15.60;95.60;;;;;;5027786;28;20048;-69
2023/08/24 02:49:51;;;;;;;20.90;14.88;;;15.50;95.60;;;;;;5025591;28;20049;-70
2023/08/24 02:52:17;;;;;;;24.00;15.88;;;15.50;95.60;;;;;;5016854;28;20037;-69
2023/08/24 02:54:42;;;;;;;25.65;15.27;;;15.50;95.40;;;;;;5023040;28;20036;-69
2023/08/24 02:57:08;;;;;;;26.40;14.32;;;15.50;95.70;;;;;;5024104;28;20486;-69
2023/08/24 02:59:34;;;;;;;21.77;14.55;;;15.60;95.80;;;;;;5017232;28;20030;-69
2023/08/24 03:01:59;;;;;;;25.83;15.45;;;15.70;95.90;;;;;;5018997;28;20382;-69
2023/08/24 03:04:25;;;;;;;28.00;15.50;;;15.80;95.80;;;;;;5017977;28;20072;-69
2023/08/24 03:06:50;;;;;;;29.90;15.48;;;15.90;95.90;;;;;;5028479;28;20077;-69
2023/08/24 03:09:16;;;;;;;22.15;15.20;;;15.90;95.80;;;;;;5019320;28;20032;-69
2023/08/24 03:11:41;;;;;;;24.13;14.65;;;15.90;95.70;;;;;;5029678;28;20034;-69
2023/08/24 03:14:07;;;;;;;26.67;16.20;;;15.90;95.40;;;;;;5027967;28;20112;-69
2023/08/24 03:16:32;;;;;;;24.52;15.00;;;15.90;95.70;;;;;;5020914;28;20061;-69
2023/08/24 03:18:58;;;;;;;21.30;15.00;;;15.90;96.10;;;;;;5019726;28;20042;-72
2023/08/24 03:21:23;;;;;;;21.58;14.75;;;15.80;96.10;;;;;;5039460;28;20064;-69
2023/08/24 03:23:49;;;;;;;24.90;16.35;;;15.80;96.30;;;;;;5031432;28;20033;-70
2023/08/24 03:26:16;;;;;;;22.88;15.32;;;15.80;96.50;;;;;;5026370;28;20478;-70
2023/08/24 03:28:42;;;;;;;22.67;15.38;;;15.70;96.50;;;;;;5023594;28;20029;-70
2023/08/24 03:31:08;;;;;;;20.70;13.93;;;15.70;96.40;;;;;;5014414;28;20014;-69
2023/08/24 03:33:34;;;;;;;22.67;14.73;;;15.60;96.40;;;;;;5025758;28;20022;-69
2023/08/24 03:36:00;;;;;;;24.30;14.32;;;15.60;96.30;;;;;;5018876;28;20033;-68
2023/08/24 03:38:26;;;;;;;23.80;13.95;;;15.60;96.50;;;;;;5029620;28;20079;-69
2023/08/24 03:40:52;;;;;;;21.95;14.00;;;15.60;96.20;;;;;;5017499;28;20036;-69
2023/08/24 03:43:17;;;;;;;21.95;13.65;;;15.60;96.20;;;;;;5041356;28;20432;-69
2023/08/24 03:45:43;;;;;;;20.25;14.32;;;15.60;95.90;;;;;;5021347;28;20026;-69
2023/08/24 03:48:09;;;;;;;18.90;12.18;;;15.60;96.00;;;;;;5029052;28;20032;-70
2023/08/24 03:50:34;;;;;;;19.30;12.63;;;15.50;96.10;;;;;;5025326;28;20501;-69
2023/08/24 03:53:00;;;;;;;23.25;13.63;;;15.50;96.10;;;;;;5025244;28;20369;-69
2023/08/24 03:55:25;;;;;;;24.50;14.63;;;15.60;96.00;;;;;;5033896;28;20041;-69
2023/08/24 03:57:51;;;;;;;29.08;14.57;;;15.60;96.30;;;;;;5030635;28;20066;-69
2023/08/24 04:00:17;;;;;;;22.80;14.60;;;15.60;96.30;;;;;;5032221;28;20030;-70
2023/08/24 04:02:42;;;;;;;21.75;15.07;;;15.60;96.00;;;;;;5037684;28;20037;-69
2023/08/24 04:05:08;;;;;;;21.60;14.27;;;15.60;96.20;;;;;;5027890;28;20026;-70
2023/08/24 04:07:36;;;;;;;24.90;15.45;;;15.70;96.20;;;;;;5031110;28;20497;-70
2023/08/24 04:10:04;;;;;;;25.50;15.18;;;15.60;96.00;;;;;;5027794;28;20057;-69
2023/08/24 04:12:30;;;;;;;22.35;14.60;;;15.70;96.10;;;;;;5032557;28;20084;-69
2023/08/24 04:14:57;;;;;;;26.88;14.80;;;15.70;96.20;;;;;;5026264;28;20017;-70
2023/08/24 04:17:23;;;;;;;22.50;13.93;;;15.70;96.30;;;;;;5035237;28;20022;-71
2023/08/24 04:19:48;;;;;;;21.88;14.30;;;15.70;96.20;;;;;;5033267;28;20374;-69
2023/08/24 04:22:14;;;;;;;28.15;15.02;;;15.80;96.20;;;;;;5031193;28;20032;-69
2023/08/24 04:24:39;;;;;;;25.80;15.25;;;15.80;96.30;;;;;;5035129;28;20042;-68
2023/08/24 04:27:05;;;;;;;28.65;15.45;;;15.80;96.20;;;;;;5031614;28;20069;-67
2023/08/24 04:29:30;;;;;;;31.98;17.08;;;15.80;96.00;;;;;;5018255;28;20049;-71
2023/08/24 04:31:55;;;;;;;47.42;22.05;;;15.80;96.10;;;;;;5031940;28;20030;-72
2023/08/24 04:34:21;;;;;;;37.83;19.55;;;15.80;96.30;;;;;;5036295;28;20087;-71
2023/08/24 04:36:47;;;;;;;41.10;21.65;;;15.80;96.30;;;;;;5014097;28;21295;-71
2023/08/24 04:39:12;;;;;;;48.22;22.33;;;15.80;96.30;;;;;;5033492;28;20029;-71
2023/08/24 04:41:37;;;;;;;46.63;23.33;;;15.90;96.40;;;;;;5024348;28;20630;-71
2023/08/24 04:44:03;;;;;;;42.55;21.45;;;16.00;96.60;;;;;;5018408;28;20558;-71
2023/08/24 04:46:28;;;;;;;47.30;21.08;;;16.00;96.30;;;;;;5032401;28;20098;-71
2023/08/24 04:48:54;;;;;;;31.92;17.42;;;15.90;96.10;;;;;;5018481;28;20441;-71
2023/08/24 04:51:19;;;;;;;36.55;18.83;;;15.90;96.30;;;;;;5028460;28;20037;-71
2023/08/24 04:53:45;;;;;;;30.13;16.83;;;16.00;96.20;;;;;;5034452;28;20492;-71
2023/08/24 04:56:11;;;;;;;30.48;17.00;;;15.90;96.70;;;;;;5021846;28;20058;-71
2023/08/24 04:58:36;;;;;;;30.08;15.23;;;15.90;96.60;;;;;;5021537;28;20037;-71
2023/08/24 05:01:01;;;;;;;26.60;15.02;;;16.00;96.70;;;;;;5024789;28;20449;-71
2023/08/24 05:03:27;;;;;;;22.08;14.07;;;16.00;96.50;;;;;;5025384;28;20033;-71
2023/08/24 05:05:52;;;;;;;22.30;14.32;;;16.00;96.40;;;;;;5020853;28;20033;-72
2023/08/24 05:08:18;;;;;;;22.42;13.07;;;16.00;96.00;;;;;;5024481;28;20032;-71
2023/08/24 05:10:44;;;;;;;21.70;13.57;;;16.10;96.00;;;;;;5018543;28;20537;-71
2023/08/24 05:13:09;;;;;;;20.90;13.00;;;16.10;96.20;;;;;;5020778;28;20022;-69
2023/08/24 05:15:35;;;;;;;17.38;12.10;;;16.10;96.10;;;;;;5022745;28;20507;-69
2023/08/24 05:18:00;;;;;;;17.42;11.63;;;16.10;95.80;;;;;;5031784;28;20031;-70
2023/08/24 05:20:26;;;;;;;19.10;11.55;;;16.10;95.90;;;;;;5025165;28;20115;-70
2023/08/24 05:22:54;;;;;;;18.92;11.32;;;16.10;95.60;;;;;;5028962;28;20029;-69
2023/08/24 05:25:21;;;;;;;16.08;10.93;;;16.00;95.50;;;;;;5022486;28;20037;-69
2023/08/24 05:27:46;;;;;;;14.57;10.80;;;16.00;95.70;;;;;;5029553;28;20076;-69
2023/08/24 05:30:12;;;;;;;16.70;10.60;;;16.00;95.60;;;;;;5020588;28;20038;-69
2023/08/24 05:32:38;;;;;;;17.25;10.75;;;16.00;95.60;;;;;;5019275;28;20034;-69
2023/08/24 05:35:08;;;;;;;17.52;11.65;;;15.90;95.60;;;;;;5028513;28;20026;-69
2023/08/24 05:37:34;;;;;;;18.42;10.40;;;15.90;95.60;;;;;;5029455;28;20746;-70
2023/08/24 05:40:01;;;;;;;15.55;9.70;;;16.00;96.00;;;;;;5026722;28;20519;-69
2023/08/24 05:42:27;;;;;;;17.35;10.30;;;16.00;96.20;;;;;;5025934;28;20036;-71
2023/08/24 05:44:53;;;;;;;18.45;10.50;;;16.10;96.00;;;;;;5026351;28;20017;-69
2023/08/24 05:47:18;;;;;;;19.30;11.45;;;16.30;96.10;;;;;;5026069;28;20101;-69
2023/08/24 05:49:44;;;;;;;17.23;11.15;;;16.40;96.40;;;;;;5023639;28;20038;-70
2023/08/24 05:52:09;;;;;;;21.48;12.05;;;16.60;96.40;;;;;;5018668;28;20057;-72
2023/08/24 05:54:36;;;;;;;21.63;12.50;;;16.80;96.40;;;;;;5024073;28;20037;-71
2023/08/24 05:57:03;;;;;;;19.48;13.10;;;17.00;96.40;;;;;;5022872;28;20108;-71
2023/08/24 05:59:29;;;;;;;19.30;13.30;;;17.10;96.00;;;;;;5028092;28;20478;-71
2023/08/24 06:01:55;;;;;;;25.17;13.93;;;17.30;95.60;;;;;;5020005;28;20044;-69
2023/08/24 06:04:20;;;;;;;19.52;13.40;;;17.50;95.40;;;;;;5020740;28;20367;-69
2023/08/24 06:06:45;;;;;;;21.00;13.13;;;17.60;94.70;;;;;;5013121;28;20064;-70
2023/08/24 06:09:11;;;;;;;19.30;11.85;;;17.70;94.60;;;;;;5015110;28;20034;-70
2023/08/24 06:11:36;;;;;;;17.98;10.95;;;17.70;93.70;;;;;;5024951;28;20038;-71
2023/08/24 06:14:02;;;;;;;15.10;9.73;;;17.90;94.10;;;;;;5021237;28;20148;-70
2023/08/24 06:16:29;;;;;;;13.65;8.55;;;17.90;93.80;;;;;;5037757;28;20032;-70
2023/08/24 06:18:54;;;;;;;18.00;8.45;;;17.90;93.60;;;;;;5030865;28;20172;-70
2023/08/24 06:21:20;;;;;;;13.98;8.70;;;17.90;93.60;;;;;;5042422;28;20096;-70
2023/08/24 06:23:47;;;;;;;11.93;7.35;;;17.90;93.50;;;;;;5033895;28;20049;-70
2023/08/24 06:26:13;;;;;;;12.95;7.88;;;17.80;93.50;;;;;;5037972;28;20124;-70
2023/08/24 06:28:38;;;;;;;10.73;7.60;;;17.70;93.30;;;;;;5037482;28;20543;-71
2023/08/24 06:31:04;;;;;;;12.93;6.78;;;17.80;93.20;;;;;;5028293;28;20030;-69
2023/08/24 06:33:33;;;;;;;14.88;6.10;;;17.80;93.30;;;;;;5024364;28;20061;-70
2023/08/24 06:35:59;;;;;;;9.00;6.15;;;17.90;93.30;;;;;;5020211;28;20067;-70
2023/08/24 06:38:25;;;;;;;11.65;6.38;;;17.90;93.00;;;;;;5019985;28;20454;-70
2023/08/24 06:40:51;;;;;;;14.48;7.03;;;18.00;93.20;;;;;;5024814;28;20022;-70
2023/08/24 06:43:16;;;;;;;9.93;7.15;;;18.00;92.80;;;;;;5012024;28;20039;-71
2023/08/24 06:45:43;;;;;;;12.95;7.82;;;18.00;92.80;;;;;;5019540;28;20132;-70
2023/08/24 06:48:08;;;;;;;13.13;6.80;;;18.00;92.40;;;;;;5023156;28;20024;-70
2023/08/24 06:50:36;;;;;;;13.02;6.07;;;18.00;92.60;;;;;;5017995;28;20034;-70
2023/08/24 06:53:03;;;;;;;14.77;6.18;;;18.10;92.50;;;;;;5025534;28;20488;-71
2023/08/24 06:55:28;;;;;;;8.57;4.22;;;18.20;92.30;;;;;;5022092;28;20148;-70
2023/08/24 06:57:54;;;;;;;12.27;5.22;;;18.30;91.90;;;;;;5030891;28;20105;-70
2023/08/24 07:00:20;;;;;;;9.65;4.70;;;18.30;91.70;;;;;;5036762;28;20064;-70
2023/08/24 07:02:47;;;;;;;9.77;4.55;;;18.50;92.20;;;;;;5021726;28;20481;-70
2023/08/24 07:05:12;;;;;;;13.90;5.80;;;18.60;92.10;;;;;;5019489;28;20025;-70
2023/08/24 07:07:38;;;;;;;15.30;5.95;;;18.50;91.00;;;;;;5023473;28;20075;-70
2023/08/24 07:10:04;;;;;;;11.80;6.47;;;18.50;90.80;;;;;;5020389;28;20498;-71
2023/08/24 07:12:29;;;;;;;15.30;7.45;;;18.60;90.90;;;;;;5029806;28;20025;-70
2023/08/24 07:14:55;;;;;;;11.32;5.70;;;18.70;90.50;;;;;;5030681;28;20474;-70
2023/08/24 07:17:20;;;;;;;14.23;6.15;;;18.80;90.30;;;;;;5032347;28;20079;-69
2023/08/24 07:19:46;;;;;;;13.32;5.90;;;18.80;90.50;;;;;;5027477;28;20038;-70
2023/08/24 07:22:11;;;;;;;17.50;7.70;;;18.90;90.60;;;;;;5029360;28;20029;-71
2023/08/24 07:24:37;;;;;;;14.32;8.00;;;19.00;90.20;;;;;;5027887;28;20646;-71
2023/08/24 07:27:06;;;;;;;13.18;6.68;;;19.00;90.00;;;;;;5035552;28;20029;-70
2023/08/24 07:29:31;;;;;;;14.15;5.57;;;19.10;89.90;;;;;;5020949;28;20398;-70
2023/08/24 07:31:57;;;;;;;14.73;8.27;;;19.20;90.00;;;;;;5034615;28;20037;-71
2023/08/24 07:34:22;;;;;;;14.73;7.45;;;19.20;89.50;;;;;;5034121;28;20030;-71
2023/08/24 07:36:50;;;;;;;12.57;7.05;;;19.20;89.40;;;;;;5027313;28;20025;-71
2023/08/24 07:39:15;;;;;;;12.77;6.40;;;19.40;89.10;;;;;;5023862;28;20057;-70
2023/08/24 07:41:45;;;;;;;9.07;6.03;;;19.50;88.80;;;;;;5035427;28;20060;-70
2023/08/24 07:44:10;;;;;;;9.95;5.00;;;19.50;88.70;;;;;;5028077;28;20125;-70
2023/08/24 07:46:36;;;;;;;12.13;5.05;;;19.70;87.50;;;;;;5030079;28;20731;-70
2023/08/24 07:49:01;;;;;;;11.27;4.82;;;19.80;87.30;;;;;;5023148;28;20108;-70
2023/08/24 07:51:28;;;;;;;11.02;4.53;;;20.00;87.30;;;;;;5027534;28;20036;-70
2023/08/24 07:53:53;;;;;;;11.25;5.45;;;20.10;85.90;;;;;;5027541;28;20014;-70
2023/08/24 07:56:19;;;;;;;11.65;4.57;;;20.10;86.10;;;;;;5026676;28;20038;-71
2023/08/24 07:58:44;;;;;;;8.65;4.15;;;20.10;86.80;;;;;;5016127;28;20453;-70
2023/08/24 08:01:11;;;;;;;7.10;3.80;;;20.30;86.50;;;;;;5017548;28;20076;-70
2023/08/24 08:03:36;;;;;;;9.77;3.55;;;20.40;85.30;;;;;;5029951;28;20350;-71
2023/08/24 08:06:02;;;;;;;5.18;2.80;;;20.40;83.70;;;;;;5028096;28;20071;-70
2023/08/24 08:08:27;;;;;;;8.93;3.40;;;20.50;83.90;;;;;;5030522;28;20029;-70
2023/08/24 08:10:59;;;;;;;8.38;3.80;;;20.70;83.80;;;;;;5035287;28;20033;-70
2023/08/24 08:13:25;;;;;;;8.50;3.45;;;20.80;80.80;;;;;;5032560;28;20025;-70
2023/08/24 08:15:50;;;;;;;8.07;3.10;;;21.00;82.50;;;;;;5024472;28;20350;-70
2023/08/24 08:18:16;;;;;;;9.05;3.80;;;21.10;83.10;;;;;;5032448;28;20562;-70
2023/08/24 08:20:41;;;;;;;7.85;3.95;;;21.20;81.90;;;;;;5029460;28;20033;-70
2023/08/24 08:23:07;;;;;;;10.02;4.47;;;21.30;80.60;;;;;;5021970;28;20034;-70
2023/08/24 08:25:33;;;;;;;9.75;4.07;;;21.40;81.10;;;;;;5025070;28;20049;-70
2023/08/24 08:27:58;;;;;;;13.63;4.65;;;21.50;79.80;;;;;;5031555;28;20032;-70
2023/08/24 08:30:24;;;;;;;8.18;4.13;;;21.50;80.30;;;;;;5022299;28;20021;-69
2023/08/24 08:32:51;;;;;;;10.25;3.78;;;21.40;79.50;;;;;;5040143;28;20139;-70
2023/08/24 08:35:17;;;;;;;7.97;3.08;;;21.50;80.30;;;;;;5026775;28;20079;-70
2023/08/24 08:37:42;;;;;;;7.75;3.20;;;21.70;80.00;;;;;;5026358;28;20431;-71
2023/08/24 08:40:10;;;;;;;8.25;2.95;;;22.00;79.70;;;;;;5026366;28;20022;-70
2023/08/24 08:42:36;;;;;;;6.38;3.25;;;22.00;76.00;;;;;;5029173;28;20041;-70
2023/08/24 08:45:04;;;;;;;8.75;3.10;;;22.00;77.60;;;;;;5026935;28;20115;-70
2023/08/24 08:47:29;;;;;;;8.57;2.67;;;22.10;76.80;;;;;;5033373;28;20033;-70
2023/08/24 08:49:55;;;;;;;9.48;2.55;;;22.30;76.70;;;;;;5030375;28;20163;-70
2023/08/24 08:52:21;;;;;;;6.95;3.22;;;22.50;75.80;;;;;;5030762;28;20051;-70
2023/08/24 08:54:46;;;;;;;9.52;3.13;;;22.50;75.10;;;;;;5030183;28;20123;-71
2023/08/24 08:57:14;;;;;;;6.80;3.10;;;22.50;76.60;;;;;;5027890;28;20374;-70
2023/08/24 08:59:41;;;;;;;5.82;3.30;;;22.70;75.60;;;;;;5024568;28;20034;-70
2023/08/24 09:02:14;;;;;;;8.18;3.47;;;22.70;73.40;;;;;;5025487;28;20397;-70
2023/08/24 09:04:44;;;;;;;8.95;3.00;;;23.00;74.40;;;;;;5020295;28;20036;-71
2023/08/24 09:07:11;;;;;;;8.38;3.42;;;23.00;75.10;;;;;;5028106;28;20025;-70
2023/08/24 09:09:38;;;;;;;10.70;3.60;;;23.30;76.40;;;;;;5024770;28;20048;-71
2023/08/24 09:12:06;;;;;;;9.98;3.22;;;23.30;74.70;;;;;;5026807;28;20528;-70
2023/08/24 09:14:32;;;;;;;6.35;2.83;;;23.50;74.40;;;;;;5018004;28;20022;-70
2023/08/24 09:16:57;;;;;;;6.47;2.90;;;23.00;74.50;;;;;;5030260;28;20040;-70
2023/08/24 09:19:30;;;;;;;7.47;3.08;;;23.00;72.90;;;;;;5033050;28;20037;-70
2023/08/24 09:22:01;;;;;;;9.63;2.60;;;23.30;73.70;;;;;;5026966;28;20056;-70
2023/08/24 09:24:34;;;;;;;6.00;2.50;;;23.50;73.00;;;;;;5026094;28;20040;-70
2023/08/24 09:27:15;;;;;;;7.22;2.72;;;23.80;72.80;;;;;;5028812;28;20042;-70
2023/08/24 09:29:41;;;;;;;5.63;2.60;;;23.70;71.80;;;;;;5019307;28;20148;-70
2023/08/24 09:32:10;;;;;;;6.40;2.67;;;24.00;72.20;;;;;;5023977;28;20116;-70
2023/08/24 09:34:36;;;;;;;5.82;2.88;;;24.00;72.90;;;;;;5033286;28;20104;-70
2023/08/24 09:37:04;;;;;;;4.45;2.50;;;24.20;73.30;;;;;;5025333;28;20025;-69
2023/08/24 09:39:29;;;;;;;9.13;3.53;;;24.30;73.30;;;;;;5021540;28;20040;-70
2023/08/24 09:42:02;;;;;;;6.78;2.67;;;24.20;70.60;;;;;;5027756;28;20391;-72
2023/08/24 09:44:28;;;;;;;8.40;2.95;;;24.50;71.00;;;;;;5020363;28;20484;-70
2023/08/24 09:46:54;;;;;;;8.82;3.25;;;24.50;70.70;;;;;;5017854;28;20034;-70
2023/08/24 09:49:20;;;;;;;7.30;3.08;;;24.50;70.40;;;;;;5020687;28;20515;-72
2023/08/24 09:51:45;;;;;;;9.68;3.35;;;24.70;71.20;;;;;;5015474;28;20045;-70
2023/08/24 09:54:12;;;;;;;10.73;3.05;;;24.50;70.50;;;;;;5021829;28;20017;-70
2023/08/24 09:56:40;;;;;;;5.07;2.58;;;24.90;72.00;;;;;;5028785;28;20100;-72
2023/08/24 09:59:17;;;;;;;8.10;3.20;;;25.00;69.10;;;;;;5021651;28;21076;-70
2023/08/24 10:01:44;;;;;;;7.90;2.90;;;24.90;69.90;;;;;;5015080;28;20083;-71
2023/08/24 10:04:11;;;;;;;6.70;2.97;;;25.30;69.00;;;;;;5020487;28;20017;-70
2023/08/24 10:06:39;;;;;;;6.30;2.53;;;25.30;67.80;;;;;;5017063;28;20048;-70
2023/08/24 10:09:07;;;;;;;6.80;2.75;;;25.50;69.80;;;;;;5030614;28;20032;-69
2023/08/24 10:11:39;;;;;;;7.32;2.70;;;25.50;67.60;;;;;;5019728;28;20184;-70
2023/08/24 10:14:15;;;;;;;8.02;2.67;;;25.20;68.00;;;;;;5021409;28;20517;-70
2023/08/24 10:16:42;;;;;;;6.57;2.85;;;25.50;67.80;;;;;;5023519;28;20029;-72
2023/08/24 10:19:08;;;;;;;7.90;3.17;;;25.50;66.40;;;;;;5031079;28;20029;-71
2023/08/24 10:21:35;;;;;;;10.60;3.25;;;25.50;65.20;;;;;;5030225;28;20041;-70
2023/08/24 10:24:02;;;;;;;10.60;2.67;;;25.50;66.40;;;;;;5020995;28;20175;-70
2023/08/24 10:26:28;;;;;;;8.85;2.55;;;26.10;66.60;;;;;;5031331;28;20090;-70
2023/08/24 10:28:53;;;;;;;6.25;2.70;;;26.10;67.00;;;;;;5023030;28;20622;-70
2023/08/24 10:31:20;;;;;;;7.18;3.17;;;25.90;64.50;;;;;;5033231;28;20104;-70
2023/08/24 10:33:46;;;;;;;6.57;3.55;;;26.00;63.20;;;;;;5033544;28;20493;-72
2023/08/24 10:36:16;;;;;;;6.22;2.90;;;26.00;62.00;;;;;;5023727;28;20038;-70
2023/08/24 10:38:42;;;;;;;9.77;2.78;;;26.00;62.20;;;;;;5026906;28;20025;-70
2023/08/24 10:41:08;;;;;;;8.70;3.30;;;26.40;63.30;;;;;;5037181;28;20040;-70
2023/08/24 10:43:38;;;;;;;6.78;2.88;;;26.40;61.30;;;;;;5043043;28;20112;-70
2023/08/24 10:46:04;;;;;;;7.05;2.65;;;26.60;59.70;;;;;;5030053;28;20032;-71
2023/08/24 10:48:41;;;;;;;5.32;1.90;;;26.70;62.60;;;;;;5037287;28;20501;-70
2023/08/24 10:51:21;;;;;;;6.38;2.35;;;27.00;61.70;;;;;;5030967;28;20075;-71
2023/08/24 10:53:48;;;;;;;5.00;2.17;;;27.00;62.30;;;;;;5031845;28;20041;-73
2023/08/24 10:56:18;;;;;;;7.30;2.67;;;27.60;59.20;;;;;;5027573;28;20084;-72
2023/08/24 10:58:45;;;;;;;5.32;2.38;;;27.10;57.50;;;;;;5033627;28;20021;-70
2023/08/24 11:01:18;;;;;;;4.55;2.17;;;27.20;56.10;;;;;;5019342;28;20033;-71
2023/08/24 11:03:51;;;;;;;4.95;2.00;;;27.20;54.80;;;;;;5025851;28;20475;-71
2023/08/24 11:06:24;;;;;;;5.07;1.90;;;27.80;55.40;;;;;;5025782;28;20044;-71
2023/08/24 11:09:13;;;;;;;5.75;1.80;;;27.90;56.30;;;;;;5025858;28;20030;-71
2023/08/24 11:11:39;;;;;;;4.35;2.20;;;27.90;55.70;;;;;;5024445;28;20017;-71
2023/08/24 11:14:29;;;;;;;4.97;2.35;;;27.80;54.80;;;;;;5018931;28;20021;-72
2023/08/24 11:17:17;;;;;;;;;;;27.60;56.40;;;;;;5025230;28;20035;-73
2023/08/24 11:19:52;;;;;;;4.55;1.95;;;28.10;59.80;;;;;;5023109;28;20376;-70
2023/08/24 11:22:18;;;;;;;5.75;2.30;;;28.00;56.30;;;;;;5024971;28;20026;-71
2023/08/24 11:24:45;;;;;;;6.30;2.08;;;28.00;54.50;;;;;;5031548;28;20513;-71
2023/08/24 11:27:11;;;;;;;3.75;1.90;;;28.00;55.50;;;;;;5037756;28;20046;-70
2023/08/24 11:29:37;;;;;;;6.50;2.25;;;28.10;56.90;;;;;;5024791;28;20132;-71
2023/08/24 11:32:02;;;;;;;4.78;2.25;;;28.20;57.10;;;;;;5032907;28;20026;-71
2023/08/24 11:34:29;;;;;;;4.90;2.35;;;28.10;55.70;;;;;;5026114;28;20030;-71
2023/08/24 11:36:54;;;;;;;5.00;2.20;;;28.30;52.90;;;;;;5019531;28;20057;-71
2023/08/24 11:39:22;;;;;;;5.22;2.47;;;28.30;52.30;;;;;;5026783;28;20076;-70
2023/08/24 11:42:04;;;;;;;6.30;2.42;;;28.00;52.50;;;;;;5025042;28;20036;-70
2023/08/24 11:44:46;;;;;;;6.70;2.15;;;27.90;52.40;;;;;;5024627;28;20026;-71
2023/08/24 11:47:12;;;;;;;4.28;2.25;;;28.40;52.90;;;;;;5031171;28;20465;-70
2023/08/24 11:49:37;;;;;;;4.97;1.92;;;28.10;52.20;;;;;;5020026;28;20044;-71
2023/08/24 11:52:03;;;;;;;5.57;2.15;;;28.00;53.20;;;;;;5029679;28;20034;-70
2023/08/24 11:54:31;;;;;;;4.60;2.00;;;28.00;52.50;;;;;;5022049;28;20405;-72
2023/08/24 11:56:57;;;;;;;5.50;2.00;;;28.10;54.00;;;;;;5027302;28;20034;-71
2023/08/24 11:59:23;;;;;;;7.35;1.77;;;28.60;54.00;;;;;;5024649;28;20112;-74
2023/08/24 12:01:49;;;;;;;5.68;2.22;;;29.20;53.60;;;;;;5022020;28;20108;-74
2023/08/24 12:04:14;;;;;;;5.32;1.90;;;28.30;54.20;;;;;;5023305;28;20093;-73
2023/08/24 12:06:40;;;;;;;4.72;1.60;;;28.70;54.60;;;;;;5023604;28;20033;-74
2023/08/24 12:09:06;;;;;;;6.03;2.10;;;29.40;52.80;;;;;;5017438;28;20077;-74
2023/08/24 12:11:35;;;;;;;5.22;1.90;;;29.50;50.20;;;;;;5020769;28;20025;-75
2023/08/24 12:14:01;;;;;;;4.97;1.90;;;29.80;49.10;;;;;;5023500;28;20105;-76
2023/08/24 12:16:27;;;;;;;5.78;1.80;;;29.60;49.50;;;;;;5029594;28;20437;-73
2023/08/24 12:18:59;;;;;;;3.63;1.42;;;30.40;48.60;;;;;;5045341;28;20074;-74
2023/08/24 12:21:25;;;;;;;5.43;1.92;;;30.40;48.20;;;;;;5040916;28;20041;-72
2023/08/24 12:24:05;;;;;;;4.78;1.65;;;30.00;50.40;;;;;;5031166;28;20024;-73
2023/08/24 12:26:32;;;;;;;6.47;2.08;;;29.60;49.20;;;;;;5028181;28;20038;-70
2023/08/24 12:29:05;;;;;;;6.63;1.50;;;30.00;48.40;;;;;;5024317;28;20025;-71
2023/08/24 12:31:32;;;;;;;8.43;2.17;;;30.00;49.00;;;;;;5038156;28;20029;-71
2023/08/24 12:34:00;;;;;;;4.40;1.50;;;30.30;48.70;;;;;;5033576;28;20086;-71
2023/08/24 12:36:25;;;;;;;5.03;1.70;;;30.10;50.30;;;;;;5030301;28;20029;-71